Gould, Arkansas
Current Conditions -  °F | °C
As of 4:31 AM on Sunday 26 Oct 2014 (Local Time) from KPBF Reporting Station
Haze Haze  
Wind Chill: 59°   Ceiling: Unl
Heat Index: 59°   Visibility: 2mi
Dew Point: 58°   Wind: 3mph
Humidity: 96%   Direction: 200°SSW
Pressure: 30"   Gusts: NA
Location:  33.99°N, 91.56°W
Report Text: KPBF 260931Z AUTO 20003KT 2SM BR SCT006 15/14 A3000 RMK AO2 T01500144
Loading
Personal Weather Stations






























Interactive Weather Map New forecast layout! Learn more

10-Day Weather Forecast

Advertisements
Track Severe Weather on mobile